sensor_id;sensor_type;location;lat;lon;timestamp;pressure;altitude;pressure_sealevel;temperature;humidity
33075;BME280;19433;51.292;6.868;2023-02-15T00:01:40;101700.38;;;2.91;100.00
33075;BME280;19433;51.292;6.868;2023-02-15T00:04:07;101693.59;;;2.85;100.00
33075;BME280;19433;51.292;6.868;2023-02-15T00:06:33;101680.94;;;2.84;100.00
33075;BME280;19433;51.292;6.868;2023-02-15T00:08:59;101683.66;;;2.95;100.00
33075;BME280;19433;51.292;6.868;2023-02-15T00:11:25;101669.03;;;2.85;100.00
33075;BME280;19433;51.292;6.868;2023-02-15T00:16:31;101680.56;;;2.89;100.00
33075;BME280;19433;51.292;6.868;2023-02-15T00:18:57;101663.06;;;2.80;100.00
33075;BME280;19433;51.292;6.868;2023-02-15T00:21:22;101663.69;;;2.83;100.00
33075;BME280;19433;51.292;6.868;2023-02-15T00:23:47;101661.59;;;2.87;100.00
33075;BME280;19433;51.292;6.868;2023-02-15T00:26:13;101659.59;;;2.89;100.00
33075;BME280;19433;51.292;6.868;2023-02-15T00:28:38;101661.34;;;2.90;100.00
33075;BME280;19433;51.292;6.868;2023-02-15T00:31:08;101673.00;;;2.81;100.00
33075;BME280;19433;51.292;6.868;2023-02-15T00:33:35;101669.75;;;2.76;100.00
33075;BME280;19433;51.292;6.868;2023-02-15T00:36:02;101661.47;;;2.66;100.00
33075;BME280;19433;51.292;6.868;2023-02-15T00:38:28;101658.25;;;2.50;100.00
33075;BME280;19433;51.292;6.868;2023-02-15T00:41:01;101673.00;;;2.81;100.00
33075;BME280;19433;51.292;6.868;2023-02-15T00:43:27;101661.72;;;2.63;100.00
33075;BME280;19433;51.292;6.868;2023-02-15T00:45:53;101656.63;;;2.70;100.00
33075;BME280;19433;51.292;6.868;2023-02-15T00:48:19;101654.41;;;2.53;100.00
33075;BME280;19433;51.292;6.868;2023-02-15T00:50:46;101643.72;;;2.50;100.00
33075;BME280;19433;51.292;6.868;2023-02-15T00:53:12;101652.19;;;2.58;100.00
33075;BME280;19433;51.292;6.868;2023-02-15T00:55:37;101649.19;;;2.61;100.00
33075;BME280;19433;51.292;6.868;2023-02-15T00:58:04;101654.41;;;2.53;100.00
33075;BME280;19433;51.292;6.868;2023-02-15T01:00:29;101639.38;;;2.47;100.00
33075;BME280;19433;51.292;6.868;2023-02-15T01:02:54;101650.81;;;2.52;100.00
33075;BME280;19433;51.292;6.868;2023-02-15T01:05:20;101645.47;;;2.39;100.00
33075;BME280;19433;51.292;6.868;2023-02-15T01:07:45;101662.47;;;2.43;100.00
33075;BME280;19433;51.292;6.868;2023-02-15T01:10:10;101650.66;;;2.31;100.00
33075;BME280;19433;51.292;6.868;2023-02-15T01:12:35;101652.50;;;2.20;100.00
33075;BME280;19433;51.292;6.868;2023-02-15T01:15:01;101645.31;;;2.30;100.00
33075;BME280;19433;51.292;6.868;2023-02-15T01:17:26;101644.09;;;2.23;100.00
33075;BME280;19433;51.292;6.868;2023-02-15T01:19:51;101658.19;;;2.17;100.00
33075;BME280;19433;51.292;6.868;2023-02-15T01:22:18;101651.41;;;2.11;100.00
33075;BME280;19433;51.292;6.868;2023-02-15T01:24:43;101635.53;;;2.16;100.00
33075;BME280;19433;51.292;6.868;2023-02-15T01:27:09;101643.56;;;2.06;100.00
33075;BME280;19433;51.292;6.868;2023-02-15T01:29:34;101647.06;;;2.08;100.00
33075;BME280;19433;51.292;6.868;2023-02-15T01:31:59;101644.31;;;1.97;100.00
33075;BME280;19433;51.292;6.868;2023-02-15T01:34:24;101648.38;;;2.03;100.00
33075;BME280;19433;51.292;6.868;2023-02-15T01:36:50;101637.78;;;2.11;100.00
33075;BME280;19433;51.292;6.868;2023-02-15T01:39:16;101641.97;;;2.15;100.00
33075;BME280;19433;51.292;6.868;2023-02-15T01:41:41;101642.47;;;2.31;100.00
33075;BME280;19433;51.292;6.868;2023-02-15T01:52:29;101634.06;;;2.12;100.00
33075;BME280;19433;51.292;6.868;2023-02-15T01:54:55;101623.97;;;2.01;100.00
33075;BME280;19433;51.292;6.868;2023-02-15T01:57:23;101635.16;;;2.09;100.00
33075;BME280;19433;51.292;6.868;2023-02-15T01:59:54;101636.56;;;2.26;100.00
33075;BME280;19433;51.292;6.868;2023-02-15T02:02:21;101634.19;;;2.33;100.00
33075;BME280;19433;51.292;6.868;2023-02-15T02:04:51;101628.09;;;2.18;100.00
33075;BME280;19433;51.292;6.868;2023-02-15T02:07:20;101619.50;;;2.00;100.00
33075;BME280;19433;51.292;6.868;2023-02-15T02:09:47;101616.31;;;1.95;100.00
33075;BME280;19433;51.292;6.868;2023-02-15T02:12:14;101617.81;;;2.10;100.00
33075;BME280;19433;51.292;6.868;2023-02-15T02:14:40;101604.66;;;2.16;100.00
33075;BME280;19433;51.292;6.868;2023-02-15T02:22:53;101586.94;;;1.88;100.00
33075;BME280;19433;51.292;6.868;2023-02-15T02:31:04;101596.84;;;1.89;100.00
33075;BME280;19433;51.292;6.868;2023-02-15T02:36:39;101590.03;;;1.94;100.00
33075;BME280;19433;51.292;6.868;2023-02-15T02:39:12;101576.03;;;1.88;100.00
33075;BME280;19433;51.292;6.868;2023-02-15T02:44:26;101557.94;;;1.87;100.00
33075;BME280;19433;51.292;6.868;2023-02-15T02:47:05;101571.56;;;1.87;100.00
33075;BME280;19433;51.292;6.868;2023-02-15T02:49:41;101567.50;;;1.92;100.00
33075;BME280;19433;51.292;6.868;2023-02-15T02:52:34;101570.22;;;1.81;100.00
33075;BME280;19433;51.292;6.868;2023-02-15T02:55:03;101553.19;;;1.55;100.00
33075;BME280;19433;51.292;6.868;2023-02-15T02:57:32;101557.06;;;1.64;100.00
33075;BME280;19433;51.292;6.868;2023-02-15T02:59:58;101560.66;;;1.87;100.00
33075;BME280;19433;51.292;6.868;2023-02-15T03:02:32;101552.00;;;1.93;100.00
33075;BME280;19433;51.292;6.868;2023-02-15T03:05:03;101530.28;;;1.69;100.00
33075;BME280;19433;51.292;6.868;2023-02-15T03:07:32;101549.41;;;1.91;100.00
33075;BME280;19433;51.292;6.868;2023-02-15T03:10:00;101545.41;;;1.84;100.00
33075;BME280;19433;51.292;6.868;2023-02-15T03:12:34;101539.63;;;1.77;100.00
33075;BME280;19433;51.292;6.868;2023-02-15T03:15:04;101535.38;;;1.73;100.00
33075;BME280;19433;51.292;6.868;2023-02-15T03:17:32;101529.69;;;1.76;100.00
33075;BME280;19433;51.292;6.868;2023-02-15T03:20:02;101535.91;;;1.67;100.00
33075;BME280;19433;51.292;6.868;2023-02-15T03:22:34;101538.56;;;1.56;100.00
33075;BME280;19433;51.292;6.868;2023-02-15T03:27:41;101547.72;;;1.55;100.00
33075;BME280;19433;51.292;6.868;2023-02-15T03:30:11;101539.44;;;1.57;100.00
33075;BME280;19433;51.292;6.868;2023-02-15T03:32:38;101538.75;;;1.66;100.00
33075;BME280;19433;51.292;6.868;2023-02-15T03:35:05;101534.41;;;1.63;100.00
33075;BME280;19433;51.292;6.868;2023-02-15T03:37:47;101542.09;;;1.81;100.00
33075;BME280;19433;51.292;6.868;2023-02-15T03:40:23;101544.19;;;1.66;100.00
33075;BME280;19433;51.292;6.868;2023-02-15T03:43:23;101542.22;;;1.68;100.00
33075;BME280;19433;51.292;6.868;2023-02-15T03:45:56;101550.22;;;1.58;100.00
33075;BME280;19433;51.292;6.868;2023-02-15T03:48:35;101538.84;;;1.64;100.00
33075;BME280;19433;51.292;6.868;2023-02-15T03:51:05;101534.00;;;1.57;100.00
33075;BME280;19433;51.292;6.868;2023-02-15T03:53:52;101538.31;;;1.48;100.00
33075;BME280;19433;51.292;6.868;2023-02-15T03:56:17;101540.00;;;1.38;100.00
33075;BME280;19433;51.292;6.868;2023-02-15T03:58:43;101531.25;;;1.46;100.00
33075;BME280;19433;51.292;6.868;2023-02-15T04:04:36;101533.63;;;1.50;100.00
33075;BME280;19433;51.292;6.868;2023-02-15T04:07:04;101530.53;;;1.55;100.00
33075;BME280;19433;51.292;6.868;2023-02-15T04:09:30;101516.53;;;1.48;100.00
33075;BME280;19433;51.292;6.868;2023-02-15T04:12:14;101534.38;;;1.52;100.00
33075;BME280;19433;51.292;6.868;2023-02-15T04:14:39;101535.56;;;1.37;100.00
33075;BME280;19433;51.292;6.868;2023-02-15T04:17:23;101536.94;;;1.54;100.00
33075;BME280;19433;51.292;6.868;2023-02-15T04:19:48;101537.56;;;1.46;100.00
33075;BME280;19433;51.292;6.868;2023-02-15T04:22:32;101546.75;;;1.56;100.00
33075;BME280;19433;51.292;6.868;2023-02-15T04:25:16;101541.19;;;1.58;100.00
33075;BME280;19433;51.292;6.868;2023-02-15T04:27:44;101538.09;;;1.51;100.00
33075;BME280;19433;51.292;6.868;2023-02-15T04:30:11;101531.88;;;1.49;100.00
33075;BME280;19433;51.292;6.868;2023-02-15T04:32:37;101522.44;;;1.31;100.00
33075;BME280;19433;51.292;6.868;2023-02-15T04:35:04;101524.06;;;1.33;100.00
33075;BME280;19433;51.292;6.868;2023-02-15T04:37:30;101525.03;;;1.32;100.00
33075;BME280;19433;51.292;6.868;2023-02-15T04:39:56;101535.06;;;1.32;100.00
33075;BME280;19433;51.292;6.868;2023-02-15T04:42:23;101526.25;;;1.28;100.00
33075;BME280;19433;51.292;6.868;2023-02-15T04:44:49;101530.44;;;1.21;100.00
33075;BME280;19433;51.292;6.868;2023-02-15T04:47:14;101530.47;;;1.32;100.00
33075;BME280;19433;51.292;6.868;2023-02-15T04:49:39;101519.59;;;1.32;100.00
33075;BME280;19433;51.292;6.868;2023-02-15T04:52:05;101519.06;;;1.27;100.00
33075;BME280;19433;51.292;6.868;2023-02-15T04:54:30;101522.66;;;1.28;100.00
33075;BME280;19433;51.292;6.868;2023-02-15T04:56:55;101515.81;;;1.22;100.00
33075;BME280;19433;51.292;6.868;2023-02-15T04:59:20;101540.22;;;1.24;100.00
33075;BME280;19433;51.292;6.868;2023-02-15T05:01:46;101513.84;;;1.24;100.00
33075;BME280;19433;51.292;6.868;2023-02-15T05:04:11;101513.47;;;1.18;100.00
33075;BME280;19433;51.292;6.868;2023-02-15T05:06:36;101519.00;;;1.05;100.00
33075;BME280;19433;51.292;6.868;2023-02-15T05:09:02;101510.09;;;1.03;100.00
33075;BME280;19433;51.292;6.868;2023-02-15T05:11:27;101516.03;;;1.08;100.00
33075;BME280;19433;51.292;6.868;2023-02-15T05:13:52;101495.06;;;0.86;100.00
33075;BME280;19433;51.292;6.868;2023-02-15T05:16:18;101512.69;;;1.04;100.00
33075;BME280;19433;51.292;6.868;2023-02-15T05:18:43;101497.44;;;0.91;100.00
33075;BME280;19433;51.292;6.868;2023-02-15T05:21:08;101509.38;;;1.12;100.00
33075;BME280;19433;51.292;6.868;2023-02-15T05:23:34;101498.91;;;0.95;100.00
33075;BME280;19433;51.292;6.868;2023-02-15T05:25:59;101503.78;;;1.02;100.00
33075;BME280;19433;51.292;6.868;2023-02-15T05:28:43;101499.78;;;0.95;100.00
33075;BME280;19433;51.292;6.868;2023-02-15T05:31:12;101489.44;;;1.00;100.00
33075;BME280;19433;51.292;6.868;2023-02-15T05:33:38;101482.66;;;1.06;100.00
33075;BME280;19433;51.292;6.868;2023-02-15T05:36:05;101482.28;;;1.11;100.00
33075;BME280;19433;51.292;6.868;2023-02-15T05:38:31;101492.84;;;1.26;100.00
33075;BME280;19433;51.292;6.868;2023-02-15T05:40:56;101486.28;;;1.18;100.00
33075;BME280;19433;51.292;6.868;2023-02-15T05:43:22;101495.94;;;1.22;100.00
33075;BME280;19433;51.292;6.868;2023-02-15T05:45:50;101501.88;;;1.27;100.00
33075;BME280;19433;51.292;6.868;2023-02-15T05:48:16;101496.41;;;1.16;100.00
33075;BME280;19433;51.292;6.868;2023-02-15T05:50:42;101490.22;;;1.25;100.00
33075;BME280;19433;51.292;6.868;2023-02-15T05:53:07;101480.66;;;1.08;100.00
33075;BME280;19433;51.292;6.868;2023-02-15T05:55:32;101492.66;;;1.05;100.00
33075;BME280;19433;51.292;6.868;2023-02-15T05:57:58;101496.53;;;1.25;100.00
33075;BME280;19433;51.292;6.868;2023-02-15T06:00:23;101484.78;;;1.25;100.00
33075;BME280;19433;51.292;6.868;2023-02-15T06:02:49;101482.03;;;1.14;100.00
33075;BME280;19433;51.292;6.868;2023-02-15T06:05:14;101486.34;;;1.05;100.00
33075;BME280;19433;51.292;6.868;2023-02-15T06:07:43;101488.97;;;1.07;100.00
33075;BME280;19433;51.292;6.868;2023-02-15T06:10:08;101468.91;;;1.08;100.00
33075;BME280;19433;51.292;6.868;2023-02-15T06:12:34;101484.66;;;1.15;100.00
33075;BME280;19433;51.292;6.868;2023-02-15T06:14:59;101481.63;;;1.07;100.00
33075;BME280;19433;51.292;6.868;2023-02-15T06:17:24;101486.34;;;1.05;100.00
33075;BME280;19433;51.292;6.868;2023-02-15T06:19:50;101490.41;;;0.99;100.00
33075;BME280;19433;51.292;6.868;2023-02-15T06:22:15;101497.81;;;0.97;100.00
33075;BME280;19433;51.292;6.868;2023-02-15T06:24:40;101509.31;;;0.90;100.00
33075;BME280;19433;51.292;6.868;2023-02-15T06:27:08;101504.78;;;1.01;100.00
33075;BME280;19433;51.292;6.868;2023-02-15T06:29:33;101499.63;;;0.86;100.00
33075;BME280;19433;51.292;6.868;2023-02-15T06:31:59;101506.69;;;0.88;100.00
33075;BME280;19433;51.292;6.868;2023-02-15T06:34:25;101505.34;;;0.94;100.00
33075;BME280;19433;51.292;6.868;2023-02-15T06:36:50;101496.19;;;0.95;100.00
33075;BME280;19433;51.292;6.868;2023-02-15T06:39:15;101497.28;;;0.92;100.00
33075;BME280;19433;51.292;6.868;2023-02-15T06:41:41;101504.00;;;0.99;100.00
33075;BME280;19433;51.292;6.868;2023-02-15T06:44:06;101514.72;;;1.25;100.00
33075;BME280;19433;51.292;6.868;2023-02-15T06:46:32;101509.91;;;1.28;100.00
33075;BME280;19433;51.292;6.868;2023-02-15T06:48:57;101506.31;;;1.28;100.00
33075;BME280;19433;51.292;6.868;2023-02-15T06:51:22;101495.06;;;1.21;100.00
33075;BME280;19433;51.292;6.868;2023-02-15T06:53:48;101515.25;;;1.30;100.00
33075;BME280;19433;51.292;6.868;2023-02-15T06:56:13;101511.13;;;1.24;100.00
33075;BME280;19433;51.292;6.868;2023-02-15T06:58:39;101509.66;;;1.20;100.00
33075;BME280;19433;51.292;6.868;2023-02-15T07:01:06;101513.41;;;1.30;100.00
33075;BME280;19433;51.292;6.868;2023-02-15T07:03:32;101512.19;;;1.34;100.00
33075;BME280;19433;51.292;6.868;2023-02-15T07:05:59;101500.19;;;1.37;100.00
33075;BME280;19433;51.292;6.868;2023-02-15T07:08:25;101510.38;;;1.22;100.00
33075;BME280;19433;51.292;6.868;2023-02-15T07:10:52;101502.09;;;1.24;100.00
33075;BME280;19433;51.292;6.868;2023-02-15T07:13:18;101507.19;;;1.28;100.00
33075;BME280;19433;51.292;6.868;2023-02-15T07:15:45;101504.03;;;1.11;100.00
33075;BME280;19433;51.292;6.868;2023-02-15T07:18:10;101492.16;;;1.00;100.00
33075;BME280;19433;51.292;6.868;2023-02-15T07:20:36;101509.25;;;1.14;100.00
33075;BME280;19433;51.292;6.868;2023-02-15T07:23:03;101490.81;;;1.06;100.00
33075;BME280;19433;51.292;6.868;2023-02-15T07:25:29;101487.94;;;1.08;100.00
33075;BME280;19433;51.292;6.868;2023-02-15T07:27:56;101493.28;;;1.09;100.00
33075;BME280;19433;51.292;6.868;2023-02-15T07:30:22;101489.34;;;1.13;100.00
33075;BME280;19433;51.292;6.868;2023-02-15T07:32:47;101493.38;;;1.08;100.00
33075;BME280;19433;51.292;6.868;2023-02-15T07:35:32;101484.31;;;1.20;100.00
33075;BME280;19433;51.292;6.868;2023-02-15T07:37:58;101486.41;;;1.27;100.00
33075;BME280;19433;51.292;6.868;2023-02-15T07:40:23;101481.94;;;1.26;100.00
33075;BME280;19433;51.292;6.868;2023-02-15T07:42:49;101474.53;;;1.39;100.00
33075;BME280;19433;51.292;6.868;2023-02-15T07:45:16;101462.53;;;1.31;100.00
33075;BME280;19433;51.292;6.868;2023-02-15T07:47:41;101473.31;;;1.32;100.00
33075;BME280;19433;51.292;6.868;2023-02-15T07:50:07;101456.63;;;1.48;100.00
33075;BME280;19433;51.292;6.868;2023-02-15T07:52:32;101447.47;;;1.60;100.00
33075;BME280;19433;51.292;6.868;2023-02-15T07:54:57;101463.22;;;1.79;100.00
33075;BME280;19433;51.292;6.868;2023-02-15T07:57:23;101447.84;;;1.89;100.00
33075;BME280;19433;51.292;6.868;2023-02-15T07:59:48;101463.06;;;2.03;100.00
33075;BME280;19433;51.292;6.868;2023-02-15T08:02:13;101452.47;;;2.32;98.74
33075;BME280;19433;51.292;6.868;2023-02-15T08:04:39;101444.94;;;2.99;94.92
33075;BME280;19433;51.292;6.868;2023-02-15T08:07:04;101452.88;;;3.74;90.81
33075;BME280;19433;51.292;6.868;2023-02-15T08:09:29;101452.28;;;4.89;84.80
33075;BME280;19433;51.292;6.868;2023-02-15T08:11:55;101464.78;;;6.33;76.81
33075;BME280;19433;51.292;6.868;2023-02-15T08:14:21;101455.41;;;7.43;70.36
33075;BME280;19433;51.292;6.868;2023-02-15T08:16:48;101466.34;;;8.46;65.45
33075;BME280;19433;51.292;6.868;2023-02-15T08:19:27;101452.41;;;8.48;62.84
33075;BME280;19433;51.292;6.868;2023-02-15T08:21:55;101464.00;;;7.04;68.50
33075;BME280;19433;51.292;6.868;2023-02-15T08:24:23;101459.50;;;5.95;73.58
33075;BME280;19433;51.292;6.868;2023-02-15T08:26:49;101458.09;;;5.72;75.78
33075;BME280;19433;51.292;6.868;2023-02-15T08:29:16;101460.59;;;5.65;76.68
33075;BME280;19433;51.292;6.868;2023-02-15T08:31:41;101447.56;;;6.14;75.04
33075;BME280;19433;51.292;6.868;2023-02-15T08:34:08;101455.38;;;6.81;71.13
33075;BME280;19433;51.292;6.868;2023-02-15T08:36:34;101457.13;;;7.95;66.84
33075;BME280;19433;51.292;6.868;2023-02-15T08:39:02;101448.78;;;8.13;64.93
33075;BME280;19433;51.292;6.868;2023-02-15T08:41:29;101457.19;;;9.77;59.33
33075;BME280;19433;51.292;6.868;2023-02-15T08:44:00;101458.28;;;11.16;55.02
33075;BME280;19433;51.292;6.868;2023-02-15T08:46:28;101453.69;;;12.36;49.08
33075;BME280;19433;51.292;6.868;2023-02-15T08:48:54;101458.16;;;13.45;46.77
33075;BME280;19433;51.292;6.868;2023-02-15T08:51:28;101457.38;;;13.29;45.11
33075;BME280;19433;51.292;6.868;2023-02-15T08:53:56;101453.50;;;12.73;46.15
33075;BME280;19433;51.292;6.868;2023-02-15T08:56:25;101465.59;;;13.87;44.89
33075;BME280;19433;51.292;6.868;2023-02-15T08:58:51;101446.22;;;13.23;44.50
33075;BME280;19433;51.292;6.868;2023-02-15T09:01:19;101444.00;;;12.46;46.54
33075;BME280;19433;51.292;6.868;2023-02-15T09:03:47;101455.19;;;12.23;46.87
33075;BME280;19433;51.292;6.868;2023-02-15T09:06:16;101444.41;;;12.28;46.82
33075;BME280;19433;51.292;6.868;2023-02-15T09:08:41;101452.75;;;13.36;44.20
33075;BME280;19433;51.292;6.868;2023-02-15T09:11:12;101445.72;;;14.24;42.52
33075;BME280;19433;51.292;6.868;2023-02-15T09:13:38;101447.28;;;13.07;43.89
33075;BME280;19433;51.292;6.868;2023-02-15T09:16:09;101441.47;;;13.02;44.47
33075;BME280;19433;51.292;6.868;2023-02-15T09:18:37;101456.31;;;13.80;42.56
33075;BME280;19433;51.292;6.868;2023-02-15T09:21:04;101451.69;;;13.16;44.21
33075;BME280;19433;51.292;6.868;2023-02-15T09:23:30;101442.22;;;13.11;44.91
33075;BME280;19433;51.292;6.868;2023-02-15T09:25:55;101447.94;;;13.24;44.07
33075;BME280;19433;51.292;6.868;2023-02-15T09:28:21;101447.59;;;13.55;43.69
33075;BME280;19433;51.292;6.868;2023-02-15T09:30:46;101448.34;;;13.42;43.56
33075;BME280;19433;51.292;6.868;2023-02-15T09:33:11;101450.34;;;14.04;42.40
33075;BME280;19433;51.292;6.868;2023-02-15T09:35:36;101457.44;;;15.02;39.71
33075;BME280;19433;51.292;6.868;2023-02-15T09:38:02;101451.03;;;15.01;40.40
33075;BME280;19433;51.292;6.868;2023-02-15T09:40:32;101466.34;;;16.11;37.79
33075;BME280;19433;51.292;6.868;2023-02-15T09:43:14;101459.84;;;16.63;36.28
33075;BME280;19433;51.292;6.868;2023-02-15T09:46:01;101468.09;;;16.90;35.03
33075;BME280;19433;51.292;6.868;2023-02-15T09:48:41;101450.41;;;17.02;35.64
33075;BME280;19433;51.292;6.868;2023-02-15T09:57:31;101471.94;;;17.89;32.76
33075;BME280;19433;51.292;6.868;2023-02-15T10:00:18;101469.72;;;18.41;32.43
33075;BME280;19433;51.292;6.868;2023-02-15T10:11:11;101489.75;;;20.13;30.25
33075;BME280;19433;51.292;6.868;2023-02-15T10:14:23;101481.47;;;20.41;29.15
33075;BME280;19433;51.292;6.868;2023-02-15T10:22:45;101447.91;;;17.26;33.09
33075;BME280;19433;51.292;6.868;2023-02-15T10:28:06;101458.31;;;17.75;32.54
33075;BME280;19433;51.292;6.868;2023-02-15T10:30:48;101453.34;;;17.45;32.84
33075;BME280;19433;51.292;6.868;2023-02-15T10:33:26;101466.78;;;17.62;33.16
33075;BME280;19433;51.292;6.868;2023-02-15T10:38:47;101461.88;;;19.35;31.09
33075;BME280;19433;51.292;6.868;2023-02-15T10:41:36;101461.22;;;20.39;27.92
33075;BME280;19433;51.292;6.868;2023-02-15T10:55:50;101449.13;;;17.92;32.43
33075;BME280;19433;51.292;6.868;2023-02-15T11:06:31;101445.22;;;21.76;26.93
33075;BME280;19433;51.292;6.868;2023-02-15T11:09:02;101443.91;;;20.82;27.38
33075;BME280;19433;51.292;6.868;2023-02-15T11:11:34;101441.91;;;20.08;28.46
33075;BME280;19433;51.292;6.868;2023-02-15T11:14:12;101454.16;;;19.00;30.04
33075;BME280;19433;51.292;6.868;2023-02-15T11:16:44;101451.19;;;19.13;30.11
33075;BME280;19433;51.292;6.868;2023-02-15T11:21:39;101445.84;;;22.12;26.60
33075;BME280;19433;51.292;6.868;2023-02-15T11:24:10;101447.06;;;22.76;25.88
33075;BME280;19433;51.292;6.868;2023-02-15T11:26:46;101460.41;;;23.52;25.32
33075;BME280;19433;51.292;6.868;2023-02-15T11:29:31;101451.09;;;21.92;26.15
33075;BME280;19433;51.292;6.868;2023-02-15T11:32:04;101441.28;;;21.94;25.82
33075;BME280;19433;51.292;6.868;2023-02-15T11:34:51;101447.03;;;20.97;27.61
33075;BME280;19433;51.292;6.868;2023-02-15T11:37:23;101440.63;;;20.85;28.09
33075;BME280;19433;51.292;6.868;2023-02-15T11:39:51;101448.16;;;21.36;27.11
33075;BME280;19433;51.292;6.868;2023-02-15T11:42:22;101436.06;;;19.97;28.82
33075;BME280;19433;51.292;6.868;2023-02-15T11:47:40;101431.28;;;21.08;27.24
33075;BME280;19433;51.292;6.868;2023-02-15T11:50:13;101423.66;;;21.20;28.04
33075;BME280;19433;51.292;6.868;2023-02-15T11:52:40;101436.91;;;22.37;26.17
33075;BME280;19433;51.292;6.868;2023-02-15T11:55:12;101417.19;;;22.75;25.95
33075;BME280;19433;51.292;6.868;2023-02-15T11:57:42;101409.59;;;21.65;25.84
33075;BME280;19433;51.292;6.868;2023-02-15T12:00:54;101406.69;;;21.77;26.12
33075;BME280;19433;51.292;6.868;2023-02-15T12:03:07;101400.56;;;21.80;26.68
33075;BME280;19433;51.292;6.868;2023-02-15T12:05:37;101404.56;;;21.84;26.24
33075;BME280;19433;51.292;6.868;2023-02-15T12:08:13;101389.75;;;21.27;26.97
33075;BME280;19433;51.292;6.868;2023-02-15T12:10:45;101381.75;;;20.50;28.15
33075;BME280;19433;51.292;6.868;2023-02-15T12:13:18;101386.69;;;19.31;29.98
33075;BME280;19433;51.292;6.868;2023-02-15T12:15:49;101387.28;;;18.62;31.04
33075;BME280;19433;51.292;6.868;2023-02-15T12:18:21;101385.03;;;20.87;28.09
33075;BME280;19433;51.292;6.868;2023-02-15T12:20:50;101370.25;;;21.20;27.32
33075;BME280;19433;51.292;6.868;2023-02-15T12:23:17;101367.09;;;20.48;27.92
33075;BME280;19433;51.292;6.868;2023-02-15T12:25:53;101357.91;;;20.01;28.96
33075;BME280;19433;51.292;6.868;2023-02-15T12:28:34;101366.53;;;21.48;27.30
33075;BME280;19433;51.292;6.868;2023-02-15T12:31:02;101357.75;;;20.71;27.67
33075;BME280;19433;51.292;6.868;2023-02-15T12:33:36;101358.44;;;20.78;28.01
33075;BME280;19433;51.292;6.868;2023-02-15T12:36:12;101364.75;;;21.59;27.53
33075;BME280;19433;51.292;6.868;2023-02-15T12:38:39;101364.31;;;22.83;25.17
33075;BME280;19433;51.292;6.868;2023-02-15T12:41:25;101364.50;;;23.52;25.03
33075;BME280;19433;51.292;6.868;2023-02-15T12:44:18;101356.69;;;23.05;25.07
33075;BME280;19433;51.292;6.868;2023-02-15T12:49:33;101352.75;;;25.47;22.59
33075;BME280;19433;51.292;6.868;2023-02-15T12:52:02;101359.69;;;24.88;23.36
33075;BME280;19433;51.292;6.868;2023-02-15T12:54:46;101348.66;;;23.82;24.25
33075;BME280;19433;51.292;6.868;2023-02-15T12:57:31;101345.00;;;23.23;25.02
33075;BME280;19433;51.292;6.868;2023-02-15T13:00:26;101345.09;;;22.36;25.87
33075;BME280;19433;51.292;6.868;2023-02-15T13:02:55;101340.53;;;23.27;25.49
33075;BME280;19433;51.292;6.868;2023-02-15T13:05:41;101337.06;;;21.67;26.16
33075;BME280;19433;51.292;6.868;2023-02-15T13:08:18;101335.00;;;21.80;27.03
33075;BME280;19433;51.292;6.868;2023-02-15T13:10:56;101327.53;;;23.90;24.91
33075;BME280;19433;51.292;6.868;2023-02-15T13:13:26;101343.38;;;25.31;23.31
33075;BME280;19433;51.292;6.868;2023-02-15T13:15:55;101331.81;;;25.73;22.06
33075;BME280;19433;51.292;6.868;2023-02-15T13:18:38;101332.03;;;26.12;21.96
33075;BME280;19433;51.292;6.868;2023-02-15T13:21:35;101327.06;;;24.61;23.08
33075;BME280;19433;51.292;6.868;2023-02-15T13:24:06;101327.09;;;23.39;24.26
33075;BME280;19433;51.292;6.868;2023-02-15T13:26:34;101313.81;;;21.94;26.08
33075;BME280;19433;51.292;6.868;2023-02-15T13:29:24;101300.78;;;22.97;25.03
33075;BME280;19433;51.292;6.868;2023-02-15T13:31:51;101313.84;;;23.08;25.13
33075;BME280;19433;51.292;6.868;2023-02-15T13:34:25;101303.97;;;21.58;26.88
33075;BME280;19433;51.292;6.868;2023-02-15T13:37:11;101294.53;;;22.02;26.74
33075;BME280;19433;51.292;6.868;2023-02-15T13:40:43;101290.28;;;22.92;26.04
33075;BME280;19433;51.292;6.868;2023-02-15T13:42:40;101278.59;;;22.78;26.10
33075;BME280;19433;51.292;6.868;2023-02-15T13:54:03;101278.19;;;17.71;32.54
33075;BME280;19433;51.292;6.868;2023-02-15T13:56:40;101261.44;;;16.71;34.32
33075;BME280;19433;51.292;6.868;2023-02-15T14:05:21;101243.41;;;14.94;38.26
33075;BME280;19433;51.292;6.868;2023-02-15T14:10:44;101253.72;;;14.13;41.36
33075;BME280;19433;51.292;6.868;2023-02-15T14:21:34;101235.69;;;13.89;41.94
33075;BME280;19433;51.292;6.868;2023-02-15T14:27:24;101234.19;;;13.93;41.58
33075;BME280;19433;51.292;6.868;2023-02-15T14:29:59;101236.06;;;13.79;41.44
33075;BME280;19433;51.292;6.868;2023-02-15T14:32:33;101232.41;;;13.79;42.17
33075;BME280;19433;51.292;6.868;2023-02-15T14:35:03;101232.91;;;13.89;42.09
33075;BME280;19433;51.292;6.868;2023-02-15T14:37:50;101232.56;;;13.64;42.90
33075;BME280;19433;51.292;6.868;2023-02-15T14:40:29;101235.34;;;13.64;43.16
33075;BME280;19433;51.292;6.868;2023-02-15T14:46:03;101229.72;;;13.51;43.26
33075;BME280;19433;51.292;6.868;2023-02-15T14:48:48;101239.75;;;13.52;43.14
33075;BME280;19433;51.292;6.868;2023-02-15T14:54:07;101219.19;;;13.40;45.41
33075;BME280;19433;51.292;6.868;2023-02-15T14:56:33;101225.69;;;13.53;44.70
33075;BME280;19433;51.292;6.868;2023-02-15T14:59:01;101228.41;;;13.47;45.14
33075;BME280;19433;51.292;6.868;2023-02-15T15:01:38;101215.91;;;13.29;44.61
33075;BME280;19433;51.292;6.868;2023-02-15T15:04:24;101218.16;;;13.13;45.17
33075;BME280;19433;51.292;6.868;2023-02-15T15:07:38;101212.75;;;13.32;44.61
33075;BME280;19433;51.292;6.868;2023-02-15T15:12:50;101213.06;;;13.16;46.23